Time;durP1;ratioP1;P1;durP2;ratioP2;P2;SDS_P1;SDS_P2;PMS_P1;PMS_P2;Temp;Humidity;BMP_temperature;BMP_pressure;BME280_temperature;BME280_humidity;BME280_pressure;Samples;Min_cycle;Max_cycle;Signal;HPM_P1;HPM_P2
2022/09/11 00:01:28;;;;;;;6.03;2.42;;;;;;;25.29;55.59;100810.78;5076288;28;20060;-71
2022/09/11 00:03:55;;;;;;;6.40;2.55;;;;;;;25.32;55.32;100817.69;5075877;28;20063;-71
2022/09/11 00:06:25;;;;;;;5.25;2.60;;;;;;;25.33;55.40;100814.84;5074838;28;20075;-71
2022/09/11 00:09:02;;;;;;;6.82;2.95;;;;;;;25.36;55.36;100819.03;5075543;28;20037;-71
2022/09/11 00:11:48;;;;;;;5.85;2.63;;;;;;;25.37;55.37;100812.63;5076065;28;20052;-71
2022/09/11 00:14:15;;;;;;;6.47;2.35;;;;;;;25.39;55.38;100816.00;5076055;28;20364;-71
2022/09/11 00:16:45;;;;;;;3.83;2.33;;;;;;;25.39;55.22;100813.28;5076012;28;20040;-71
2022/09/11 00:19:18;;;;;;;4.40;2.80;;;;;;;25.40;55.15;100809.53;5075869;28;20456;-71
2022/09/11 00:21:46;;;;;;;6.50;2.70;;;;;;;25.42;55.22;100812.09;5075610;28;20049;-71
2022/09/11 00:24:13;;;;;;;4.10;2.35;;;;;;;25.42;55.19;100812.94;5076851;28;20055;-71
2022/09/11 00:26:41;;;;;;;4.72;2.60;;;;;;;25.44;55.00;100815.47;5096354;28;20051;-71
2022/09/11 00:29:09;;;;;;;3.63;2.35;;;;;;;25.44;55.13;100827.16;5094605;28;20052;-71
2022/09/11 00:31:36;;;;;;;5.03;2.30;;;;;;;25.44;55.19;100816.31;5096175;28;20048;-71
2022/09/11 00:34:05;;;;;;;4.10;2.20;;;;;;;25.45;54.81;100826.16;5095660;28;20060;-72
2022/09/11 00:36:35;;;;;;;3.72;2.42;;;;;;;25.46;54.94;100819.72;5094204;28;20040;-71
2022/09/11 00:39:03;;;;;;;2.97;1.90;;;;;;;25.46;55.17;100818.88;5095462;28;20040;-71
2022/09/11 00:41:35;;;;;;;4.82;2.40;;;;;;;25.47;54.95;100831.41;5095074;28;20048;-71
2022/09/11 00:44:11;;;;;;;3.47;2.28;;;;;;;25.48;55.01;100824.94;5077055;28;20044;-71
2022/09/11 00:46:54;;;;;;;5.22;2.20;;;;;;;25.48;54.91;100816.81;5075477;28;20044;-71
2022/09/11 00:49:31;;;;;;;3.83;2.08;;;;;;;25.49;54.83;100824.78;5075034;28;20037;-72
2022/09/11 00:52:07;;;;;;;2.95;2.05;;;;;;;25.48;54.91;100820.41;5074882;28;20400;-71
2022/09/11 00:54:42;;;;;;;5.57;2.10;;;;;;;25.49;54.84;100819.38;5075074;28;20048;-71
2022/09/11 00:57:10;;;;;;;4.57;2.05;;;;;;;25.49;54.86;100815.81;5075290;28;20369;-71
2022/09/11 00:59:42;;;;;;;4.25;2.42;;;;;;;25.48;54.80;100823.13;5073411;28;20040;-72
2022/09/11 01:02:12;;;;;;;;;;;;;;;25.50;54.89;100823.78;5074099;28;20048;-71
2022/09/11 01:04:39;;;;;;;8.93;2.60;;;;;;;25.51;54.76;100824.59;5075020;28;20368;-71
2022/09/11 01:07:09;;;;;;;3.45;2.40;;;;;;;25.51;54.76;100817.31;5073703;28;20072;-71
2022/09/11 01:09:37;;;;;;;5.40;2.78;;;;;;;25.51;54.79;100824.59;5074535;28;20047;-72
2022/09/11 01:12:27;;;;;;;3.85;2.50;;;;;;;25.52;54.68;100818.16;5074936;28;20041;-71
2022/09/11 01:15:02;;;;;;;3.83;2.53;;;;;;;25.52;54.75;100823.59;5073813;28;20056;-72
2022/09/11 01:17:46;;;;;;;4.95;2.20;;;;;;;25.52;54.81;100829.88;5074376;28;20048;-71
2022/09/11 01:20:25;;;;;;;3.00;2.20;;;;;;;25.52;54.74;100834.44;5074640;28;20052;-71
2022/09/11 01:23:02;;;;;;;4.60;2.33;;;;;;;25.52;54.61;100846.16;5073190;28;20059;-72
2022/09/11 01:25:50;;;;;;;3.53;2.25;;;;;;;25.53;54.92;100844.28;5074666;28;20048;-72
2022/09/11 01:28:23;;;;;;;4.25;2.10;;;;;;;25.52;54.71;100850.69;5072793;28;20412;-72
2022/09/11 01:30:57;;;;;;;3.20;2.33;;;;;;;25.52;54.54;100857.00;5073748;28;20052;-71
2022/09/11 01:33:39;;;;;;;2.75;2.10;;;;;;;25.52;54.60;100854.28;5073960;28;20064;-71
2022/09/11 01:36:20;;;;;;;3.92;2.42;;;;;;;25.53;54.59;100861.38;5073796;28;20055;-71
2022/09/11 01:38:52;;;;;;;4.25;2.88;;;;;;;25.53;54.62;100857.84;5074249;28;20392;-71
2022/09/11 01:41:28;;;;;;;3.45;2.30;;;;;;;25.53;54.60;100858.66;5092958;28;20044;-71
2022/09/11 01:44:11;;;;;;;4.03;2.17;;;;;;;25.53;54.67;100858.66;5084638;28;20067;-71
2022/09/11 01:46:43;;;;;;;3.47;2.10;;;;;;;25.53;54.68;100869.50;5092003;28;20377;-71
2022/09/11 01:49:19;;;;;;;2.90;2.22;;;;;;;25.54;54.62;100871.19;5093285;28;20048;-71
2022/09/11 01:51:51;;;;;;;3.20;1.92;;;;;;;25.54;54.85;100862.22;5093029;28;20048;-71
2022/09/11 01:54:25;;;;;;;2.88;2.22;;;;;;;25.54;54.76;100857.66;5092923;28;20052;-71
2022/09/11 01:56:54;;;;;;;;;;;;;;;25.55;54.79;100858.50;5095222;28;20134;-71
2022/09/11 01:59:30;;;;;;;3.10;2.17;;;;;;;25.56;54.93;100862.88;5092754;28;19927;-71
2022/09/11 02:02:05;;;;;;;3.75;2.30;;;;;;;25.55;54.90;100853.06;5091704;28;20417;-71
2022/09/11 02:04:39;;;;;;;3.75;2.17;;;;;;;25.55;55.03;100851.19;5093956;28;20063;-71
2022/09/11 02:07:22;;;;;;;2.80;2.25;;;;;;;25.54;55.05;100860.34;5093175;28;20052;-71
2022/09/11 02:09:58;;;;;;;3.67;2.15;;;;;;;25.54;55.12;100849.50;5093087;28;20051;-71
2022/09/11 02:12:39;;;;;;;4.20;2.60;;;;;;;25.55;55.15;100853.91;5092461;28;20403;-72
2022/09/11 02:15:08;;;;;;;3.63;2.08;;;;;;;25.55;55.24;100859.34;5093313;28;20790;-71
2022/09/11 02:17:59;;;;;;;3.35;2.08;;;;;;;25.55;55.28;100864.75;5092687;28;20056;-71
2022/09/11 02:20:30;;;;;;;;;;;;;;;25.55;55.22;100864.75;5092497;28;20048;-71
2022/09/11 02:22:57;;;;;;;3.15;2.00;;;;;;;25.55;55.09;100875.59;5092829;28;20390;-72
2022/09/11 02:25:25;;;;;;;3.10;2.25;;;;;;;25.56;55.15;100885.44;5092634;28;20052;-71
2022/09/11 02:27:55;;;;;;;3.33;2.08;;;;;;;25.55;55.27;100883.72;5093488;28;20399;-72
2022/09/11 02:30:23;;;;;;;2.45;1.95;;;;;;;25.56;55.33;100885.44;5092771;28;20043;-71
2022/09/11 02:32:53;;;;;;;3.17;2.03;;;;;;;25.56;55.36;100881.84;5092173;28;20492;-72
2022/09/11 02:35:26;;;;;;;3.85;2.20;;;;;;;25.55;55.40;100889.16;5093694;28;20048;-72
2022/09/11 02:38:01;;;;;;;6.40;2.35;;;;;;;25.56;55.56;100885.44;5092150;28;20048;-71
2022/09/11 02:40:47;;;;;;;4.15;2.50;;;;;;;25.58;55.42;100882.56;5092842;28;20044;-71
2022/09/11 02:43:32;;;;;;;3.42;2.05;;;;;;;25.56;55.28;100873.72;5092292;28;20414;-71
2022/09/11 02:46:03;;;;;;;3.63;2.22;;;;;;;25.56;55.18;100879.16;5074146;28;20044;-72
2022/09/11 02:48:49;;;;;;;3.20;2.10;;;;;;;25.55;55.29;100872.88;5072116;28;20052;-71
2022/09/11 02:51:35;;;;;;;4.90;2.25;;;;;;;25.56;55.32;100874.59;5072328;28;20140;-71
2022/09/11 02:54:06;;;;;;;5.00;2.22;;;;;;;25.55;55.14;100878.31;5071603;28;20427;-72
2022/09/11 02:56:46;;;;;;;3.85;2.13;;;;;;;25.55;55.14;100883.72;5071817;28;20052;-71
2022/09/11 02:59:25;;;;;;;2.92;2.20;;;;;;;25.56;55.05;100884.56;5073331;28;20040;-72
2022/09/11 03:01:55;;;;;;;3.33;2.08;;;;;;;25.55;54.94;100881.00;5072112;28;20412;-72
2022/09/11 03:04:25;;;;;;;4.13;2.53;;;;;;;25.55;54.65;100889.16;5072159;28;20404;-74
2022/09/11 03:06:55;;;;;;;4.80;2.30;;;;;;;25.54;54.56;100886.63;5071888;28;20411;-74
2022/09/11 03:09:23;;;;;;;4.68;2.55;;;;;;;25.53;54.64;100891.19;5072947;28;20032;-73
2022/09/11 03:11:54;;;;;;;5.00;2.30;;;;;;;25.52;54.38;100880.50;5071864;28;20052;-71
2022/09/11 03:14:22;;;;;;;4.07;2.45;;;;;;;25.50;54.23;100877.97;5075472;28;20787;-70
2022/09/11 03:16:49;;;;;;;5.05;2.58;;;;;;;25.50;54.27;100874.44;5075840;28;20048;-70
2022/09/11 03:19:18;;;;;;;3.35;2.60;;;;;;;25.49;54.13;100878.16;5075647;28;20404;-70
2022/09/11 03:21:45;;;;;;;3.38;2.35;;;;;;;25.48;54.14;100877.31;5075630;28;20064;-71
2022/09/11 03:24:15;;;;;;;3.55;2.33;;;;;;;25.47;53.86;100883.75;5075584;28;20442;-71
2022/09/11 03:26:44;;;;;;;6.15;3.20;;;;;;;25.46;54.06;100879.34;5075457;28;20052;-71
2022/09/11 03:29:12;;;;;;;3.60;2.28;;;;;;;25.45;54.12;100874.94;5076086;28;20059;-71
2022/09/11 03:31:41;;;;;;;3.97;2.53;;;;;;;25.44;53.93;100875.09;5075304;28;20048;-71
2022/09/11 03:34:10;;;;;;;4.68;2.17;;;;;;;25.43;54.05;100878.84;5075023;28;20412;-71
2022/09/11 03:36:37;;;;;;;3.90;2.20;;;;;;;25.43;53.96;100881.53;5075068;28;20044;-71
2022/09/11 03:39:05;;;;;;;2.78;2.25;;;;;;;25.43;53.98;100886.97;5075580;28;20044;-70
2022/09/11 03:41:32;;;;;;;2.67;2.17;;;;;;;25.41;54.08;100876.31;5088483;28;20044;-71
2022/09/11 03:43:59;;;;;;;4.40;2.63;;;;;;;25.41;53.95;100895.28;5096440;28;20048;-72
2022/09/11 03:46:28;;;;;;;2.92;2.47;;;;;;;25.39;54.19;100895.44;5081918;28;20047;-71
2022/09/11 03:48:56;;;;;;;2.95;2.30;;;;;;;25.40;53.96;100893.56;5074772;28;20052;-71
2022/09/11 03:51:25;;;;;;;2.78;2.13;;;;;;;25.39;53.91;100898.13;5075292;28;20056;-71
2022/09/11 03:53:52;;;;;;;3.05;2.33;;;;;;;25.38;54.02;100893.75;5075010;28;20056;-71
2022/09/11 03:56:20;;;;;;;3.13;2.20;;;;;;;25.37;54.01;100896.63;5075029;28;20377;-71
2022/09/11 03:58:48;;;;;;;3.08;2.30;;;;;;;25.37;53.92;100902.91;5075303;28;20052;-71
2022/09/11 04:01:17;;;;;;;3.20;2.42;;;;;;;25.36;53.80;100903.03;5074983;28;20055;-71
2022/09/11 04:03:45;;;;;;;3.40;2.40;;;;;;;25.35;53.87;100895.94;5074780;28;20052;-71
2022/09/11 04:06:22;;;;;;;3.67;2.30;;;;;;;25.36;54.04;100905.75;5075273;28;20511;-71
2022/09/11 04:08:50;;;;;;;2.42;2.10;;;;;;;25.35;53.80;100898.66;5074658;28;20053;-71
2022/09/11 04:11:18;;;;;;;5.15;2.55;;;;;;;25.33;53.68;100898.84;5074520;28;20048;-71
2022/09/11 04:13:46;;;;;;;4.50;2.35;;;;;;;25.33;54.03;100912.38;5076189;28;20051;-71
2022/09/11 04:16:18;;;;;;;4.90;2.33;;;;;;;25.32;54.02;100915.25;5074713;28;20052;-71
2022/09/11 04:18:52;;;;;;;3.47;2.33;;;;;;;25.31;54.05;100918.97;5074614;28;20420;-71
2022/09/11 04:21:20;;;;;;;4.72;2.53;;;;;;;25.31;53.86;100924.41;5074539;28;20400;-71
2022/09/11 04:23:55;;;;;;;5.03;2.55;;;;;;;25.31;54.04;100921.69;5074446;28;20055;-71
2022/09/11 04:26:27;;;;;;;3.55;1.83;;;;;;;25.31;54.19;100927.09;5077333;28;20071;-71
2022/09/11 04:29:17;;;;;;;4.07;2.17;;;;;;;25.31;54.15;100924.41;5093309;28;20503;-71
2022/09/11 04:31:45;;;;;;;2.63;2.08;;;;;;;25.31;54.08;100933.38;5094800;28;20044;-71
2022/09/11 04:34:14;;;;;;;5.20;2.50;;;;;;;25.31;54.04;100937.94;5094373;28;20063;-71
2022/09/11 04:36:42;;;;;;;3.05;2.30;;;;;;;25.30;53.92;100939.81;5094671;28;20048;-71
2022/09/11 04:39:14;;;;;;;3.97;2.80;;;;;;;25.31;54.09;100940.66;5095074;28;20051;-71
2022/09/11 04:41:43;;;;;;;3.47;2.38;;;;;;;25.30;54.00;100942.53;5094368;28;20107;-71
2022/09/11 04:44:10;;;;;;;3.08;2.30;;;;;;;25.29;53.67;100946.25;5094268;28;20067;-70
2022/09/11 04:46:41;;;;;;;3.60;2.40;;;;;;;25.27;53.73;100950.13;5087824;28;20048;-70
2022/09/11 04:49:10;;;;;;;2.38;2.00;;;;;;;25.25;53.73;100953.03;5073497;28;20052;-71
2022/09/11 04:51:39;;;;;;;2.75;2.30;;;;;;;25.25;53.79;100952.19;5073829;28;20049;-71
2022/09/11 04:54:14;;;;;;;5.75;2.75;;;;;;;25.25;53.83;100954.91;5075093;28;20047;-71
2022/09/11 04:56:41;;;;;;;3.45;2.40;;;;;;;25.24;54.00;100947.75;5074844;28;20056;-71
2022/09/11 04:59:18;;;;;;;3.45;2.25;;;;;;;25.23;53.82;100946.06;5073451;28;20048;-70
2022/09/11 05:02:05;;;;;;;2.97;2.45;;;;;;;25.22;53.85;100941.69;5074564;28;20048;-71
2022/09/11 05:04:37;;;;;;;4.93;2.47;;;;;;;25.21;53.76;100937.28;5057814;28;20071;-71
2022/09/11 05:07:04;;;;;;;4.43;2.45;;;;;;;25.21;53.76;100940.84;5073978;28;20511;-71
2022/09/11 05:09:32;;;;;;;2.85;2.30;;;;;;;25.20;53.96;100940.97;5074978;28;20511;-71
2022/09/11 05:12:01;;;;;;;4.13;2.40;;;;;;;25.19;53.71;100947.41;5073520;28;20056;-71
2022/09/11 05:14:31;;;;;;;3.53;2.08;;;;;;;25.20;53.82;100952.69;5073907;28;20060;-70
2022/09/11 05:17:01;;;;;;;4.60;2.50;;;;;;;25.21;53.97;100958.97;5073102;28;20049;-71
2022/09/11 05:19:30;;;;;;;3.63;2.35;;;;;;;25.18;53.65;100968.25;5073490;28;20059;-70
2022/09/11 05:21:57;;;;;;;3.30;1.95;;;;;;;25.19;53.63;100972.66;5073592;28;20055;-71
2022/09/11 05:24:24;;;;;;;4.60;2.38;;;;;;;25.17;53.92;100961.16;5073281;28;20511;-71
2022/09/11 05:26:55;;;;;;;3.22;2.40;;;;;;;25.19;53.96;100966.38;5073247;28;20053;-71
2022/09/11 05:29:27;;;;;;;3.05;2.40;;;;;;;25.19;53.88;100963.69;5073194;28;20044;-71
2022/09/11 05:32:06;;;;;;;2.60;2.22;;;;;;;25.19;53.92;100960.97;5072545;28;20071;-71
2022/09/11 05:34:34;;;;;;;3.17;2.17;;;;;;;25.20;54.02;100962.66;5073302;28;20098;-71
2022/09/11 05:37:01;;;;;;;3.92;2.70;;;;;;;25.20;53.82;100962.66;5072392;28;20053;-71
2022/09/11 05:39:36;;;;;;;4.95;2.72;;;;;;;25.19;53.80;100972.66;5072578;28;20064;-71
2022/09/11 05:42:05;;;;;;;4.32;2.63;;;;;;;25.19;53.82;100971.81;5088809;28;20051;-71
2022/09/11 05:44:35;;;;;;;4.85;2.30;;;;;;;25.19;53.87;100966.38;5093533;28;20052;-71
2022/09/11 05:47:03;;;;;;;2.90;2.10;;;;;;;25.18;54.08;100972.81;5092463;28;20067;-71
2022/09/11 05:49:31;;;;;;;3.60;2.40;;;;;;;25.20;54.06;100973.50;5072117;28;20036;-71
2022/09/11 05:52:00;;;;;;;3.45;1.95;;;;;;;25.20;54.01;100978.91;5056366;28;20045;-71
2022/09/11 05:54:29;;;;;;;4.47;2.25;;;;;;;25.22;54.12;100985.03;5072730;28;20480;-71
2022/09/11 05:57:01;;;;;;;3.80;2.25;;;;;;;25.23;54.31;100986.72;5072157;28;20052;-71
2022/09/11 05:59:35;;;;;;;3.38;2.10;;;;;;;25.22;54.15;100988.59;5072976;28;20056;-71
2022/09/11 06:02:03;;;;;;;4.57;2.22;;;;;;;25.24;54.15;100985.69;5073410;28;20041;-71
2022/09/11 06:04:39;;;;;;;4.40;2.30;;;;;;;25.24;54.01;101000.13;5072587;28;20079;-71
2022/09/11 06:07:07;;;;;;;4.30;2.40;;;;;;;25.25;54.22;100995.53;5072837;28;20424;-70
2022/09/11 06:09:35;;;;;;;2.83;1.92;;;;;;;25.26;53.92;100995.38;5072108;28;20412;-71
2022/09/11 06:12:03;;;;;;;4.22;1.90;;;;;;;25.26;54.13;101008.06;5073292;28;20040;-71
2022/09/11 06:14:31;;;;;;;4.60;2.50;;;;;;;25.28;54.18;101000.59;5072436;28;20044;-71
2022/09/11 06:16:59;;;;;;;5.07;2.30;;;;;;;25.27;54.03;101004.34;5072569;28;20412;-71
2022/09/11 06:19:29;;;;;;;2.97;2.00;;;;;;;25.27;54.10;101004.34;5071929;28;20052;-71
2022/09/11 06:21:56;;;;;;;5.28;2.38;;;;;;;25.27;54.20;101004.34;5072285;28;20052;-71
2022/09/11 06:24:29;;;;;;;5.25;2.50;;;;;;;25.28;54.11;101004.19;5072366;28;20056;-70
2022/09/11 06:26:56;;;;;;;4.57;2.80;;;;;;;25.27;54.23;101004.34;5071955;28;20048;-70
2022/09/11 06:29:26;;;;;;;4.80;2.63;;;;;;;25.28;54.30;101000.59;5056836;28;20055;-71
2022/09/11 06:31:54;;;;;;;4.55;2.63;;;;;;;25.30;54.32;101009.44;5072257;28;20055;-71
2022/09/11 06:34:25;;;;;;;4.05;2.60;;;;;;;25.30;54.46;101010.28;5071784;28;20051;-71
2022/09/11 06:36:53;;;;;;;3.35;2.45;;;;;;;25.32;54.37;101001.97;5078587;28;20056;-71
2022/09/11 06:39:24;;;;;;;4.53;2.72;;;;;;;25.32;54.57;100999.25;5092700;28;20052;-71
2022/09/11 06:41:54;;;;;;;4.65;2.72;;;;;;;25.33;54.65;101003.69;5092279;28;20044;-71
2022/09/11 06:44:28;;;;;;;7.63;2.70;;;;;;;25.34;54.62;101002.66;5092551;28;20060;-71
2022/09/11 06:46:59;;;;;;;3.78;2.55;;;;;;;25.33;54.81;101007.22;5092636;28;20048;-71
2022/09/11 06:49:27;;;;;;;2.97;2.20;;;;;;;25.35;54.80;101010.59;5079163;28;20040;-71
2022/09/11 06:52:12;;;;;;;4.78;2.50;;;;;;;25.36;54.68;101015.03;5091911;28;20055;-71
2022/09/11 06:54:48;;;;;;;4.18;2.65;;;;;;;25.35;54.70;101007.91;5092449;28;20048;-70
2022/09/11 06:57:16;;;;;;;4.22;2.85;;;;;;;25.37;54.73;101003.19;5091989;28;20056;-71
2022/09/11 06:59:43;;;;;;;5.05;3.00;;;;;;;25.37;54.86;100996.91;5092116;28;20044;-71
2022/09/11 07:02:11;;;;;;;7.18;3.53;;;;;;;25.37;54.84;101000.47;5092296;28;20423;-71
2022/09/11 07:04:39;;;;;;;8.27;2.92;;;;;;;25.37;55.00;100999.63;5093358;28;20051;-71
2022/09/11 07:07:06;;;;;;;6.63;2.85;;;;;;;25.38;54.84;100996.72;5092808;28;20056;-71
2022/09/11 07:09:36;;;;;;;3.85;2.17;;;;;;;25.38;54.85;100991.31;5092128;28;20059;-71
2022/09/11 07:12:03;;;;;;;4.78;2.80;;;;;;;25.39;55.02;101001.13;5093177;28;20044;-70
2022/09/11 07:14:31;;;;;;;3.05;2.28;;;;;;;25.42;54.82;101001.81;5092742;28;20056;-71
2022/09/11 07:17:09;;;;;;;5.85;2.88;;;;;;;25.42;55.09;101002.66;5091802;28;20056;-71
2022/09/11 07:19:38;;;;;;;3.85;2.80;;;;;;;25.44;54.95;100999.78;5075863;28;20048;-70
2022/09/11 07:22:05;;;;;;;6.18;2.70;;;;;;;25.45;54.99;100998.78;5093208;28;20391;-71
2022/09/11 07:24:34;;;;;;;4.13;3.28;;;;;;;25.47;55.13;100996.75;5091733;28;20059;-70
2022/09/11 07:27:01;;;;;;;6.53;3.53;;;;;;;25.47;55.11;101005.72;5075532;28;20048;-70
2022/09/11 07:29:33;;;;;;;7.03;3.70;;;;;;;25.46;55.17;101000.47;5092145;28;20059;-71
2022/09/11 07:32:01;;;;;;;6.70;3.88;;;;;;;25.48;55.17;100999.31;5092482;28;20066;-70
2022/09/11 07:34:28;;;;;;;3.72;2.90;;;;;;;25.48;55.04;100999.31;5092123;28;20056;-71
2022/09/11 07:36:59;;;;;;;5.65;3.63;;;;;;;25.49;55.12;100994.72;5084398;28;20056;-70
2022/09/11 07:39:26;;;;;;;6.32;3.70;;;;;;;25.50;55.05;101005.38;5071356;28;20052;-71
2022/09/11 07:42:08;;;;;;;4.68;3.10;;;;;;;25.51;54.84;101004.34;5079501;28;20044;-71
2022/09/11 07:44:36;;;;;;;5.65;3.60;;;;;;;25.52;55.04;101002.50;5091747;28;20052;-71
2022/09/11 07:47:04;;;;;;;5.75;4.03;;;;;;;25.52;54.97;100997.94;5092134;28;20059;-71
2022/09/11 07:49:36;;;;;;;6.28;3.42;;;;;;;25.53;54.88;101010.47;5085831;28;20692;-70
2022/09/11 07:52:05;;;;;;;4.18;3.17;;;;;;;25.55;55.07;101008.44;5070878;28;20049;-70
2022/09/11 07:54:43;;;;;;;6.13;3.58;;;;;;;25.56;55.03;101011.97;5071370;28;20063;-71
2022/09/11 07:57:12;;;;;;;4.32;3.50;;;;;;;25.56;55.05;101014.69;5071204;28;20054;-71
2022/09/11 07:59:40;;;;;;;4.80;3.72;;;;;;;25.57;54.97;101019.97;5072212;28;20052;-71
2022/09/11 08:02:10;;;;;;;6.97;3.63;;;;;;;25.57;55.03;101019.13;5075307;28;20044;-71
2022/09/11 08:04:38;;;;;;;5.63;3.58;;;;;;;25.58;54.99;101024.38;5074789;28;20052;-70
2022/09/11 08:07:05;;;;;;;5.00;3.67;;;;;;;25.60;54.91;101027.78;5075978;28;20051;-70
2022/09/11 08:09:34;;;;;;;7.43;3.92;;;;;;;25.59;54.99;101026.06;5074634;28;20522;-72
2022/09/11 08:12:03;;;;;;;5.38;3.80;;;;;;;25.61;55.08;101029.47;5074757;28;20044;-72
2022/09/11 08:14:34;;;;;;;6.72;5.47;;;;;;;25.60;54.74;101022.34;5058741;28;20060;-71
2022/09/11 08:17:15;;;;;;;6.72;5.15;;;;;;;25.57;54.73;101019.13;5074957;28;20059;-72
2022/09/11 08:19:42;;;;;;;8.10;4.82;;;;;;;25.55;54.52;101030.13;5074580;28;20048;-71
2022/09/11 08:22:11;;;;;;;11.45;6.00;;;;;;;25.54;54.28;101025.72;5074279;28;20056;-71
2022/09/11 08:24:43;;;;;;;8.40;6.55;;;;;;;25.53;53.93;101028.59;5074873;28;20044;-72
2022/09/11 08:27:13;;;;;;;7.22;5.40;;;;;;;25.53;54.33;101031.31;5074939;28;20052;-72
2022/09/11 08:29:42;;;;;;;7.88;5.82;;;;;;;25.53;54.10;101031.31;5085191;28;20040;-72
2022/09/11 08:32:12;;;;;;;8.70;5.85;;;;;;;25.54;53.85;101028.44;5094873;28;20048;-72
2022/09/11 08:34:39;;;;;;;6.65;5.20;;;;;;;25.55;54.12;101032.81;5094780;28;20500;-72
2022/09/11 08:37:07;;;;;;;7.60;5.47;;;;;;;25.55;53.60;101040.13;5094534;28;20047;-71
2022/09/11 08:39:35;;;;;;;8.07;5.80;;;;;;;25.55;53.70;101034.69;5094819;28;20499;-71
2022/09/11 08:42:15;;;;;;;8.40;5.40;;;;;;;25.54;53.72;101036.56;5094442;28;20055;-71
2022/09/11 08:44:48;;;;;;;8.20;5.30;;;;;;;25.54;54.03;101030.31;5095709;28;20460;-71
2022/09/11 08:47:30;;;;;;;9.82;5.50;;;;;;;25.55;53.89;101037.41;5094637;28;20052;-70
2022/09/11 08:50:19;;;;;;;8.52;5.53;;;;;;;25.56;53.78;101037.25;5094529;28;20048;-71
2022/09/11 08:52:47;;;;;;;5.75;4.63;;;;;;;25.57;53.96;101038.09;5073367;28;20049;-71
2022/09/11 08:55:27;;;;;;;7.57;5.03;;;;;;;25.56;53.88;101039.97;5073567;28;20056;-71
2022/09/11 08:58:23;;;;;;;10.35;5.82;;;;;;;25.56;54.09;101044.50;5073733;28;20056;-71
2022/09/11 09:01:00;;;;;;;8.88;5.45;;;;;;;25.55;53.58;101045.53;5074105;28;20063;-72
2022/09/11 09:03:58;;;;;;;6.88;5.53;;;;;;;25.57;53.79;101047.06;5074523;28;20041;-71
2022/09/11 09:06:51;;;;;;;8.15;5.05;;;;;;;25.55;53.94;101045.53;5073603;28;20063;-71
2022/09/11 09:09:41;;;;;;;8.43;4.88;;;;;;;25.52;53.87;101045.88;5074574;28;20041;-75
2022/09/11 09:12:22;;;;;;;6.22;4.50;;;;;;;25.48;53.95;101042.66;5073109;28;20075;-72
2022/09/11 09:15:18;;;;;;;8.43;5.50;;;;;;;25.46;54.07;101050.09;5073625;28;20067;-71
2022/09/11 09:17:59;;;;;;;8.88;5.50;;;;;;;25.45;54.09;101048.41;5073580;28;20059;-71
2022/09/11 09:20:33;;;;;;;6.88;4.80;;;;;;;25.48;54.40;101047.22;5073750;28;20048;-71
2022/09/11 09:23:18;;;;;;;6.30;4.55;;;;;;;25.48;54.35;101045.38;5073089;28;20408;-71
2022/09/11 09:25:48;;;;;;;7.30;4.57;;;;;;;25.50;54.36;101043.34;5073292;28;20135;-70
2022/09/11 09:28:19;;;;;;;6.57;4.78;;;;;;;25.53;54.57;101045.72;5074531;28;20049;-71
2022/09/11 09:30:50;;;;;;;7.10;4.88;;;;;;;25.55;54.54;101051.81;5074307;28;20478;-70
2022/09/11 09:33:27;;;;;;;8.85;4.93;;;;;;;25.56;54.48;101050.81;5072841;28;20052;-72
2022/09/11 09:35:56;;;;;;;6.85;4.13;;;;;;;25.65;54.43;101047.09;5072937;28;20048;-72
2022/09/11 09:38:28;;;;;;;5.57;4.28;;;;;;;25.75;54.41;101043.34;5073225;28;20392;-72
2022/09/11 09:41:25;;;;;;;5.97;4.18;;;;;;;25.80;54.27;101043.72;5074423;28;20051;-70
2022/09/11 09:44:05;;;;;;;6.07;4.68;;;;;;;25.81;54.47;101046.28;5090373;28;20044;-70
2022/09/11 09:46:43;;;;;;;7.20;4.28;;;;;;;25.82;54.37;101050.69;5094758;28;20052;-70
2022/09/11 09:49:29;;;;;;;9.30;4.53;;;;;;;25.83;54.58;101048.81;5093984;28;20407;-70
2022/09/11 09:51:58;;;;;;;6.28;4.13;;;;;;;25.84;54.63;101045.91;5085820;28;20475;-71
2022/09/11 09:54:35;;;;;;;6.38;4.75;;;;;;;25.84;54.93;101040.50;5079386;28;20044;-70
2022/09/11 09:57:05;;;;;;;7.93;4.30;;;;;;;25.81;54.24;101038.16;5073851;28;20056;-70
2022/09/11 09:59:45;;;;;;;8.07;4.07;;;;;;;25.78;53.61;101040.34;5073776;28;20277;-72
2022/09/11 10:02:39;;;;;;;5.32;3.67;;;;;;;25.75;54.13;101029.78;5073868;28;20040;-71
2022/09/11 10:05:28;;;;;;;10.52;4.35;;;;;;;25.74;54.30;101033.53;5074299;28;20045;-71
2022/09/11 10:07:59;;;;;;;9.27;4.65;;;;;;;25.75;54.34;101030.63;5073834;28;20044;-71
2022/09/11 10:10:33;;;;;;;7.72;4.20;;;;;;;25.75;54.09;101037.94;5072357;28;20056;-72
2022/09/11 10:13:07;;;;;;;5.97;4.13;;;;;;;25.75;54.17;101032.50;5072742;28;20048;-72
2022/09/11 10:15:49;;;;;;;6.13;3.45;;;;;;;25.76;56.11;101034.19;5074135;28;20048;-70
2022/09/11 10:18:41;;;;;;;7.78;4.05;;;;;;;25.75;54.82;101021.66;5073522;28;20444;-71
2022/09/11 10:21:13;;;;;;;5.25;3.55;;;;;;;25.75;55.14;101029.78;5073708;28;20415;-71
2022/09/11 10:23:51;;;;;;;5.43;3.55;;;;;;;25.74;55.26;101023.53;5072676;28;20049;-71
2022/09/11 10:26:32;;;;;;;4.13;2.55;;;;;;;25.73;54.36;101019.13;5073602;28;20057;-72
2022/09/11 10:29:11;;;;;;;7.28;2.47;;;;;;;25.73;53.24;101015.56;5073543;28;20048;-72
2022/09/11 10:31:46;;;;;;;4.00;2.55;;;;;;;25.72;53.38;101014.69;5092484;28;20067;-72
2022/09/11 10:34:19;;;;;;;5.07;2.90;;;;;;;25.74;53.55;101009.13;5093560;28;20048;-72
2022/09/11 10:37:06;;;;;;;4.20;2.15;;;;;;;25.74;53.23;101018.09;5093735;28;20044;-72
2022/09/11 10:39:36;;;;;;;3.03;2.22;;;;;;;25.75;53.01;101016.25;5093184;28;20044;-71
2022/09/11 10:42:11;;;;;;;3.90;2.50;;;;;;;25.75;52.92;101008.09;5093483;28;20067;-72
2022/09/11 10:44:42;;;;;;;4.32;2.25;;;;;;;25.75;53.01;101016.25;5093761;28;20044;-72
2022/09/11 10:47:21;;;;;;;4.80;2.58;;;;;;;25.74;52.84;101011.84;5093260;28;20051;-72
2022/09/11 10:49:48;;;;;;;5.03;2.95;;;;;;;25.73;53.10;101007.44;5093800;28;20053;-72
2022/09/11 10:52:20;;;;;;;7.03;2.67;;;;;;;25.74;52.94;101014.53;5090927;28;20044;-71
2022/09/11 10:54:51;;;;;;;;;;;;;;;25.73;51.80;101019.13;5072546;28;20040;-72
2022/09/11 10:57:40;;;;;;;3.92;2.33;;;;;;;25.76;51.63;101018.75;5073862;28;20368;-72
2022/09/11 11:00:16;;;;;;;4.75;2.53;;;;;;;25.77;52.11;101023.22;5072944;28;20484;-71
2022/09/11 11:02:49;;;;;;;6.28;3.90;;;;;;;25.77;52.66;101016.94;5073223;28;20052;-72
2022/09/11 11:05:37;;;;;;;6.25;2.63;;;;;;;25.77;51.86;101014.22;5072608;28;20059;-72
2022/09/11 11:08:05;;;;;;;5.50;2.70;;;;;;;25.75;51.92;101013.53;5073026;28;20048;-72
2022/09/11 11:10:51;;;;;;;5.50;2.50;;;;;;;25.75;52.30;101018.94;5073043;28;20052;-72
2022/09/11 11:13:21;;;;;;;5.70;2.45;;;;;;;25.75;50.87;101013.53;5072864;28;20068;-72
2022/09/11 11:16:23;;;;;;;6.30;4.88;;;;;;;25.77;51.42;101017.81;5072893;28;20394;-72
2022/09/11 11:19:33;;;;;;;5.85;3.50;;;;;;;25.81;50.62;101012.88;5072829;28;20052;-72
2022/09/11 11:22:21;;;;;;;5.05;3.40;;;;;;;25.83;50.58;101010.84;5072921;28;20045;-72
2022/09/11 11:25:14;;;;;;;5.25;2.90;;;;;;;25.84;50.34;101002.53;5072494;28;20052;-72
2022/09/11 11:27:50;;;;;;;4.85;3.05;;;;;;;25.87;50.43;101004.91;5073025;28;20056;-73
2022/09/11 11:30:42;;;;;;;5.35;2.42;;;;;;;25.89;49.73;101004.75;5070428;28;20049;-72
2022/09/11 11:33:16;;;;;;;5.78;2.63;;;;;;;25.93;49.50;101003.38;5070202;28;20055;-72
2022/09/11 11:36:06;;;;;;;3.90;2.33;;;;;;;25.93;49.35;101000.69;5074664;28;20048;-72
2022/09/11 11:38:38;;;;;;;4.78;2.63;;;;;;;25.94;49.58;100993.38;5094711;28;20063;-72
2022/09/11 11:41:14;;;;;;;2.50;2.03;;;;;;;25.94;49.08;101002.34;5094789;28;20419;-72
2022/09/11 11:43:44;;;;;;;5.82;3.08;;;;;;;25.95;49.52;101005.91;5094825;28;20465;-71
2022/09/11 11:46:18;;;;;;;6.25;2.72;;;;;;;25.96;49.50;101002.19;5094483;28;20052;-72
2022/09/11 11:49:19;;;;;;;3.60;2.67;;;;;;;25.95;49.14;101004.06;5094802;28;20059;-72
2022/09/11 11:52:00;;;;;;;4.20;2.35;;;;;;;25.94;49.16;100996.09;5034744;28;20065;-73
2022/09/11 11:54:48;;;;;;;9.55;4.00;;;;;;;25.92;49.94;101007.09;5033200;28;20053;-72
2022/09/11 11:57:23;;;;;;;4.40;2.75;;;;;;;25.92;49.83;100992.69;5034131;28;20061;-73